Log in Register

Login to your account

Username *
Password *
Remember Me

Create an account

Fields marked with an asterisk (*) are required.
Name *
Username *
Password *
Verify password *
Email *
Verify email *

Compte tenue de la situation sanitaire et des recommendations gouvernementales, l'aéroclub de Savoie n'est pas accessible aux personnes non adhérentes du club. 

Les vols découverte sont ainsi suspendus jusqu'à nouvel ordre, mais leur vente reste disponible sur notre boutique en ligne (Paypal uniquement), ou par commande mail ou téléphone.

Pour tout autre renseignement, merci de nous contacter par téléphone.

Le secrétariat est ouvert du mardi au vendredi de 13h30 à 17h, et le samedi de 9h à 12h30. Ces horaires sont suceptibles de varier ponctuellement en cette période de fêtes.

Merci

Nous contacter

 Téléphone : +33 (0)4 79 54 41 81

Coordonnées détaillées et accès : cliquez ici

 
LFLB °C
    Ferienhaus Ostsee
[source: ADDS]
METAR
LFLB 160730Z AUTO 02007KT 9999 FEW041 M00/M03 Q1027 NOSIG =
TAF LFLB 160200Z 1603/1703 35008KT 9999 OVC035 BECMG 1610/1612 CAVOK BECMG 1612/1614 VRB03KT BECMG 1618/1620 OVC035 TEMPO 1620/1701 18006KT 2000 SN OVC006 TEMPO 1701/1703 4000 -RASN SCT005 OVC025
TAF
TAF LFLB 160200Z 1603/1703 35008KT 9999 OVC035 BECMG 1610/1612 CAVOK BECMG 1612/1614 VRB03KT BECMG 1618/1620 OVC035 TEMPO 1620/1701 18006KT 2000 SN OVC006 TEMPO 1701/1703 4000 -RASN SCT005 OVC025 =
SR / SS: 07:12 / 16:20 UTC (Lever/Coucher du soleil le 2021-01-16)
JSN Boot template designed by JoomlaShine.com